createdAt,value
2023-03-05T00:02:21.514Z,60.58
2023-03-05T00:04:48.395Z,60.92
2023-03-05T00:07:14.955Z,60.63
2023-03-05T00:09:41.793Z,60.97
2023-03-05T00:12:08.678Z,60.99
2023-03-05T00:14:35.229Z,60.98
2023-03-05T00:17:01.882Z,61.02
2023-03-05T00:19:28.806Z,61.10
2023-03-05T00:21:55.605Z,61.22
2023-03-05T00:24:22.599Z,61.30
2023-03-05T00:26:49.605Z,61.15
2023-03-05T00:29:21.138Z,61.12
2023-03-05T00:31:48.660Z,61.47
2023-03-05T00:34:18.696Z,61.21
2023-03-05T00:36:48.863Z,61.17
2023-03-05T00:39:18.073Z,61.25
2023-03-05T00:41:45.354Z,60.98
2023-03-05T00:44:12.275Z,61.00
2023-03-05T00:46:39.966Z,60.93
2023-03-05T00:49:07.216Z,61.17
2023-03-05T00:51:33.861Z,61.46
2023-03-05T00:54:02.062Z,61.35
2023-03-05T00:56:29.031Z,61.45
2023-03-05T00:58:56.189Z,61.53
2023-03-05T01:01:23.422Z,61.54
2023-03-05T01:03:50.628Z,61.72
2023-03-05T01:06:17.688Z,61.75
2023-03-05T01:08:45.245Z,61.66
2023-03-05T01:11:12.236Z,61.71
2023-03-05T01:13:41.835Z,61.94
2023-03-05T01:16:08.878Z,61.98
2023-03-05T01:18:37.321Z,62.27
2023-03-05T01:21:04.184Z,62.34
2023-03-05T01:23:31.827Z,62.43
2023-03-05T01:25:58.963Z,62.69
2023-03-05T01:28:26.576Z,62.68
2023-03-05T01:30:53.497Z,62.93
2023-03-05T01:33:20.142Z,63.20
2023-03-05T01:35:48.217Z,63.37
2023-03-05T01:38:16.110Z,63.53
2023-03-05T01:40:43.261Z,63.74
2023-03-05T01:43:12.922Z,63.74
2023-03-05T01:46:18.710Z,64.33
2023-03-05T01:48:49.275Z,64.17
2023-03-05T01:51:18.684Z,64.37
2023-03-05T01:53:46.769Z,64.67
2023-03-05T01:56:15.160Z,64.68
2023-03-05T01:58:43.333Z,64.96
2023-03-05T02:01:10.297Z,65.06
2023-03-05T02:03:37.614Z,65.19
2023-03-05T02:06:04.570Z,65.17
2023-03-05T02:08:31.925Z,65.22
2023-03-05T02:10:59.814Z,65.00
2023-03-05T02:13:31.109Z,65.23
2023-03-05T02:15:59.723Z,65.39
2023-03-05T02:18:26.755Z,65.28
2023-03-05T02:20:56.483Z,65.45
2023-03-05T02:23:29.573Z,65.63
2023-03-05T02:25:56.284Z,65.38
2023-03-05T02:28:29.879Z,65.36
2023-03-05T02:30:56.962Z,65.60
2023-03-05T02:33:23.988Z,65.53
2023-03-05T02:35:51.305Z,65.72
2023-03-05T02:38:20.810Z,65.68
2023-03-05T02:40:47.661Z,65.66
2023-03-05T02:43:14.334Z,65.84
2023-03-05T02:45:41.483Z,65.61
2023-03-05T02:48:08.417Z,65.52
2023-03-05T02:50:36.216Z,65.33
2023-03-05T02:53:03.184Z,65.61
2023-03-05T02:55:29.807Z,65.46
2023-03-05T02:57:56.380Z,65.42
2023-03-05T03:00:23.709Z,65.42
2023-03-05T03:02:50.393Z,65.52
2023-03-05T03:05:17.493Z,65.40
2023-03-05T03:07:44.417Z,65.60
2023-03-05T03:10:11.472Z,65.58
2023-03-05T03:12:42.414Z,65.65
2023-03-05T03:15:11.902Z,65.38
2023-03-05T03:17:38.645Z,65.26
2023-03-05T03:20:08.247Z,65.19
2023-03-05T03:22:35.109Z,65.30
2023-03-05T03:25:04.082Z,64.98
2023-03-05T03:27:30.757Z,65.05
2023-03-05T03:30:02.175Z,65.06
2023-03-05T03:32:29.024Z,64.81
2023-03-05T03:34:58.620Z,65.04
2023-03-05T03:37:29.344Z,65.15
2023-03-05T03:39:56.193Z,64.99
2023-03-05T03:42:24.026Z,64.98
2023-03-05T03:44:51.214Z,64.83
2023-03-05T03:47:18.871Z,64.82
2023-03-05T03:49:45.558Z,64.81
2023-03-05T03:52:13.498Z,64.82
2023-03-05T03:54:40.426Z,64.60
2023-03-05T03:57:07.769Z,64.64
2023-03-05T03:59:35.091Z,64.60
2023-03-05T04:02:02.502Z,64.61
2023-03-05T04:04:38.518Z,64.39
2023-03-05T04:07:05.672Z,64.60
2023-03-05T04:09:32.258Z,64.57
2023-03-05T04:11:59.343Z,64.54
2023-03-05T04:14:26.655Z,64.33
2023-03-05T04:16:53.204Z,64.66
2023-03-05T04:19:20.372Z,64.54
2023-03-05T04:21:47.336Z,64.53
2023-03-05T04:24:14.670Z,64.45
2023-03-05T04:26:41.821Z,64.68
2023-03-05T04:29:08.876Z,64.38
2023-03-05T04:31:35.916Z,64.43
2023-03-05T04:34:02.884Z,64.50
2023-03-05T04:36:29.471Z,64.19
2023-03-05T04:38:56.378Z,64.51
2023-03-05T04:41:23.304Z,64.26
2023-03-05T04:43:49.882Z,64.35
2023-03-05T04:46:16.603Z,64.36
2023-03-05T04:48:43.482Z,64.29
2023-03-05T04:51:10.223Z,64.23
2023-03-05T04:53:36.902Z,64.19
2023-03-05T04:56:04.430Z,63.88
2023-03-05T04:58:31.074Z,63.81
2023-03-05T05:01:05.988Z,63.91
2023-03-05T05:03:33.745Z,63.99
2023-03-05T05:06:01.395Z,63.84
2023-03-05T05:08:28.829Z,63.83
2023-03-05T05:11:01.403Z,63.71
2023-03-05T05:13:28.683Z,63.78
2023-03-05T05:15:56.414Z,63.59
2023-03-05T05:18:24.049Z,63.83
2023-03-05T05:20:50.656Z,63.40
2023-03-05T05:23:18.154Z,63.42
2023-03-05T05:25:45.177Z,63.48
2023-03-05T05:28:12.384Z,63.43
2023-03-05T05:30:38.967Z,63.24
2023-03-05T05:33:05.534Z,63.20
2023-03-05T05:35:32.352Z,63.11
2023-03-05T05:37:59.133Z,62.92
2023-03-05T05:40:25.917Z,62.93
2023-03-05T05:42:53.208Z,62.78
2023-03-05T05:45:20.038Z,63.18
2023-03-05T05:47:46.847Z,63.14
2023-03-05T05:50:14.238Z,62.87
2023-03-05T05:52:40.927Z,62.96
2023-03-05T05:55:08.305Z,63.11
2023-03-05T05:57:34.934Z,63.04
2023-03-05T06:00:03.380Z,63.17
2023-03-05T06:02:39.339Z,63.15
2023-03-05T06:05:07.127Z,63.01
2023-03-05T06:07:35.450Z,63.16
2023-03-05T06:10:02.741Z,63.05
2023-03-05T06:12:29.953Z,63.03
2023-03-05T06:14:56.962Z,63.18
2023-03-05T06:17:30.306Z,62.87
2023-03-05T06:19:58.654Z,62.96
2023-03-05T06:22:25.363Z,63.16
2023-03-05T06:24:52.222Z,63.10
2023-03-05T06:27:19.145Z,63.28
2023-03-05T06:29:45.903Z,63.38
2023-03-05T06:32:12.482Z,63.43
2023-03-05T06:34:39.174Z,63.37
2023-03-05T06:37:05.832Z,63.33
2023-03-05T06:39:32.871Z,63.36
2023-03-05T06:41:59.775Z,63.25
2023-03-05T06:44:26.696Z,63.29
2023-03-05T06:46:53.412Z,63.28
2023-03-05T06:49:20.319Z,63.09
2023-03-05T06:51:47.042Z,63.13
2023-03-05T06:54:15.575Z,63.12
2023-03-05T06:56:45.147Z,63.15
2023-03-05T06:59:14.019Z,62.94
2023-03-05T07:01:41.178Z,62.84
2023-03-05T07:04:08.505Z,63.03
2023-03-05T07:06:38.013Z,62.61
2023-03-05T07:09:06.786Z,62.49
2023-03-05T07:11:34.323Z,62.18
2023-03-05T07:14:02.411Z,62.05
2023-03-05T07:16:32.177Z,61.78
2023-03-05T07:19:02.598Z,62.15
2023-03-05T07:21:31.954Z,61.92
2023-03-05T07:24:01.854Z,61.84
2023-03-05T07:26:32.935Z,61.97
2023-03-05T07:29:00.425Z,62.18
2023-03-05T07:31:30.608Z,62.03
2023-03-05T07:33:59.384Z,61.99
2023-03-05T07:36:26.332Z,61.89
2023-03-05T07:38:53.352Z,61.93
2023-03-05T07:41:29.127Z,62.05
2023-03-05T07:43:56.046Z,61.94
2023-03-05T07:46:26.508Z,62.37
2023-03-05T07:48:54.357Z,62.55
2023-03-05T07:51:22.624Z,62.46
2023-03-05T07:53:51.083Z,62.60
2023-03-05T07:56:36.272Z,62.50
2023-03-05T07:59:10.282Z,62.61
2023-03-05T08:01:37.106Z,62.58
2023-03-05T08:04:05.104Z,62.29
2023-03-05T08:06:31.965Z,62.32
2023-03-05T08:09:00.094Z,62.14
2023-03-05T08:11:28.086Z,62.11
2023-03-05T08:13:55.714Z,61.86
2023-03-05T08:16:25.403Z,62.09
2023-03-05T08:18:56.926Z,62.32
2023-03-05T08:21:29.085Z,61.84
2023-03-05T08:23:57.294Z,62.11
2023-03-05T08:26:25.670Z,62.42
2023-03-05T08:28:52.866Z,62.41
2023-03-05T08:31:22.919Z,62.50
2023-03-05T08:33:52.023Z,62.41
2023-03-05T08:36:18.957Z,62.24
2023-03-05T08:38:48.139Z,61.65
2023-03-05T08:41:16.501Z,61.87
2023-03-05T08:43:43.413Z,61.80
2023-03-05T08:46:12.878Z,62.07
2023-03-05T08:48:39.965Z,62.13
2023-03-05T08:51:13.167Z,62.33
2023-03-05T08:53:40.417Z,62.51
2023-03-05T08:56:07.610Z,62.84
2023-03-05T08:58:34.973Z,62.24
2023-03-05T09:01:02.204Z,62.19
2023-03-05T09:03:29.165Z,62.14
2023-03-05T09:06:01.511Z,62.20
2023-03-05T09:08:29.302Z,62.17
2023-03-05T09:10:56.588Z,62.22
2023-03-05T09:13:23.412Z,62.51
2023-03-05T09:16:01.708Z,62.48
2023-03-05T09:18:29.561Z,62.24
2023-03-05T09:20:56.772Z,62.46
2023-03-05T09:23:23.684Z,62.78
2023-03-05T09:25:50.655Z,62.71
2023-03-05T09:28:17.517Z,62.88
2023-03-05T09:30:44.265Z,63.04
2023-03-05T09:33:11.006Z,63.23
2023-03-05T09:35:37.765Z,63.14
2023-03-05T09:38:04.461Z,63.39
2023-03-05T09:40:55.290Z,63.41
2023-03-05T09:43:53.036Z,63.45
2023-03-05T09:46:26.342Z,63.31
2023-03-05T09:49:31.599Z,63.44
2023-03-05T09:52:25.696Z,63.43
2023-03-05T09:54:54.730Z,63.70
2023-03-05T09:57:42.038Z,63.65
2023-03-05T10:00:33.677Z,63.49
2023-03-05T10:03:06.033Z,63.51
2023-03-05T10:05:54.370Z,63.79
2023-03-05T10:08:30.917Z,63.96
2023-03-05T10:11:02.248Z,64.06
2023-03-05T10:13:40.160Z,64.06
2023-03-05T10:16:37.025Z,63.79
2023-03-05T10:19:31.942Z,63.63
2023-03-05T10:22:15.453Z,63.65
2023-03-05T10:24:57.139Z,63.80
2023-03-05T10:27:26.699Z,63.76
2023-03-05T10:30:28.822Z,63.84
2023-03-05T10:33:15.130Z,64.03
2023-03-05T10:35:51.509Z,64.23
2023-03-05T10:38:43.773Z,64.10
2023-03-05T10:41:22.868Z,64.13
2023-03-05T10:44:35.478Z,64.17
2023-03-05T10:47:10.956Z,64.70
2023-03-05T10:49:47.804Z,64.87
2023-03-05T10:52:19.645Z,65.14
2023-03-05T10:54:46.393Z,65.32
2023-03-05T10:57:25.613Z,65.58
2023-03-05T11:00:04.811Z,65.75
2023-03-05T11:02:52.019Z,66.09
2023-03-05T11:05:37.876Z,66.01
2023-03-05T11:08:36.972Z,66.53
2023-03-05T11:11:13.229Z,66.89
2023-03-05T11:13:55.516Z,66.98
2023-03-05T11:16:25.989Z,67.53
2023-03-05T11:19:20.718Z,67.70
2023-03-05T11:22:05.108Z,67.91
2023-03-05T11:24:33.300Z,68.26
2023-03-05T11:27:00.476Z,68.37
2023-03-05T11:29:32.948Z,68.31
2023-03-05T11:32:26.303Z,68.19
2023-03-05T11:34:57.444Z,68.49
2023-03-05T11:37:26.257Z,68.74
2023-03-05T11:40:22.161Z,69.11
2023-03-05T11:42:56.323Z,69.34
2023-03-05T11:45:24.611Z,69.83
2023-03-05T11:47:53.533Z,70.08
2023-03-05T11:50:20.467Z,70.43
2023-03-05T11:53:09.085Z,70.82
2023-03-05T11:55:41.134Z,71.27
2023-03-05T11:58:27.105Z,71.39
2023-03-05T12:00:54.097Z,71.75
2023-03-05T12:03:30.360Z,71.93
2023-03-05T12:06:08.728Z,72.47
2023-03-05T12:08:40.643Z,72.71
2023-03-05T12:11:17.661Z,72.69
2023-03-05T12:14:13.188Z,73.28
2023-03-05T12:16:50.060Z,73.38
2023-03-05T12:19:20.095Z,73.48
2023-03-05T12:21:50.826Z,73.71
2023-03-05T12:24:27.348Z,73.89
2023-03-05T12:27:04.361Z,74.34
2023-03-05T12:30:01.302Z,74.37
2023-03-05T12:32:28.690Z,74.47
2023-03-05T12:35:06.587Z,74.55
2023-03-05T12:37:33.651Z,74.43
2023-03-05T12:40:11.882Z,74.64
2023-03-05T12:42:38.854Z,74.73
2023-03-05T12:45:15.809Z,74.66
2023-03-05T12:47:47.701Z,74.71
2023-03-05T12:50:27.192Z,74.76
2023-03-05T12:53:03.626Z,74.78
2023-03-05T12:55:36.464Z,74.91
2023-03-05T12:58:27.240Z,74.83
2023-03-05T13:01:16.059Z,75.06
2023-03-05T13:03:55.960Z,75.24
2023-03-05T13:06:33.590Z,75.51
2023-03-05T13:09:04.183Z,75.31
2023-03-05T13:11:34.411Z,75.57
2023-03-05T13:14:02.410Z,75.52
2023-03-05T13:16:47.748Z,75.76
2023-03-05T13:19:18.393Z,75.85
2023-03-05T13:21:45.174Z,75.85
2023-03-05T13:24:19.559Z,76.11
2023-03-05T13:26:46.200Z,75.98
2023-03-05T13:29:18.724Z,75.80
2023-03-05T13:31:47.801Z,75.96
2023-03-05T13:34:22.175Z,76.09
2023-03-05T13:36:52.086Z,76.14
2023-03-05T13:39:26.729Z,76.40
2023-03-05T13:42:24.226Z,76.57
2023-03-05T13:45:20.284Z,76.68
2023-03-05T13:48:02.749Z,76.71
2023-03-05T13:50:36.546Z,76.72
2023-03-05T13:53:18.983Z,76.88
2023-03-05T13:55:47.930Z,76.80
2023-03-05T13:58:41.409Z,76.68
2023-03-05T14:01:32.264Z,76.70
2023-03-05T14:04:07.936Z,76.83
2023-03-05T14:06:41.343Z,76.83
2023-03-05T14:09:22.607Z,76.56
2023-03-05T14:12:29.687Z,76.77
2023-03-05T14:14:58.703Z,76.92
2023-03-05T14:17:29.648Z,76.87
2023-03-05T14:20:29.782Z,76.82
2023-03-05T14:23:01.076Z,76.58
2023-03-05T14:25:38.364Z,76.73
2023-03-05T14:28:27.554Z,76.58
2023-03-05T14:30:56.854Z,76.68
2023-03-05T14:33:31.606Z,76.68
2023-03-05T14:36:01.501Z,76.87
2023-03-05T14:38:31.194Z,76.73
2023-03-05T14:40:57.829Z,76.84
2023-03-05T14:43:24.734Z,76.90
2023-03-05T14:45:51.563Z,76.75
2023-03-05T14:48:18.634Z,76.80
2023-03-05T14:50:51.673Z,76.85
2023-03-05T14:53:22.292Z,76.84
2023-03-05T14:55:53.228Z,76.97
2023-03-05T14:58:22.121Z,76.82
2023-03-05T15:00:50.962Z,76.65
2023-03-05T15:03:19.657Z,76.55
2023-03-05T15:05:49.998Z,76.81
2023-03-05T15:08:20.189Z,76.75
2023-03-05T15:10:47.510Z,76.90
2023-03-05T15:13:15.251Z,76.77
2023-03-05T15:15:42.779Z,76.65
2023-03-05T15:18:14.486Z,76.93
2023-03-05T15:20:41.618Z,76.65
2023-03-05T15:23:08.702Z,76.53
2023-03-05T15:25:35.574Z,76.72
2023-03-05T15:28:02.135Z,76.74
2023-03-05T15:30:32.857Z,76.53
2023-03-05T15:33:06.800Z,76.77
2023-03-05T15:35:33.691Z,76.68
2023-03-05T15:38:00.411Z,76.78
2023-03-05T15:40:28.190Z,76.80
2023-03-05T15:42:55.989Z,76.66
2023-03-05T15:45:22.660Z,76.81
2023-03-05T15:47:51.721Z,76.70
2023-03-05T15:50:22.424Z,76.95
2023-03-05T15:52:49.951Z,76.85
2023-03-05T15:55:18.057Z,76.84
2023-03-05T15:57:47.765Z,76.79
2023-03-05T16:00:16.592Z,76.86
2023-03-05T16:02:43.555Z,76.98
2023-03-05T16:05:10.586Z,76.84
2023-03-05T16:07:41.602Z,77.15
2023-03-05T16:10:13.046Z,76.98
2023-03-05T16:12:42.384Z,77.06
2023-03-05T16:15:17.195Z,77.27
2023-03-05T16:17:46.855Z,77.30
2023-03-05T16:20:15.214Z,77.09
2023-03-05T16:22:42.885Z,77.28
2023-03-05T16:25:09.977Z,77.35
2023-03-05T16:27:37.034Z,77.33
2023-03-05T16:30:05.271Z,77.36
2023-03-05T16:32:32.535Z,77.47
2023-03-05T16:34:59.456Z,77.52
2023-03-05T16:37:26.264Z,77.52
2023-03-05T16:39:52.862Z,77.49
2023-03-05T16:42:19.673Z,77.65
2023-03-05T16:44:47.111Z,77.54
2023-03-05T16:47:13.774Z,77.79
2023-03-05T16:49:41.012Z,77.71
2023-03-05T16:52:19.724Z,77.78
2023-03-05T16:54:48.001Z,77.76
2023-03-05T16:57:15.171Z,77.89
2023-03-05T16:59:42.906Z,77.75
2023-03-05T17:02:12.436Z,77.94
2023-03-05T17:04:39.586Z,77.72
2023-03-05T17:07:07.269Z,77.79
2023-03-05T17:09:34.401Z,77.92
2023-03-05T17:12:01.187Z,77.80
2023-03-05T17:14:28.105Z,77.65
2023-03-05T17:16:55.214Z,77.76
2023-03-05T17:20:12.462Z,77.87
2023-03-05T17:22:46.576Z,77.99
2023-03-05T17:25:17.581Z,78.00
2023-03-05T17:27:47.017Z,77.98
2023-03-05T17:30:20.687Z,77.94
2023-03-05T17:32:53.333Z,77.87
2023-03-05T17:35:23.229Z,77.64
2023-03-05T17:37:54.753Z,77.74
2023-03-05T17:40:23.276Z,77.77
2023-03-05T17:42:54.914Z,77.79
2023-03-05T17:45:21.565Z,77.73
2023-03-05T17:47:48.782Z,77.60
2023-03-05T17:50:15.964Z,77.81
2023-03-05T17:52:42.885Z,77.79
2023-03-05T17:55:14.507Z,77.70
2023-03-05T17:57:42.726Z,77.66
2023-03-05T18:00:13.644Z,77.64
2023-03-05T18:02:41.180Z,77.85
2023-03-05T18:05:39.880Z,77.62
2023-03-05T18:08:56.282Z,77.59
2023-03-05T18:11:23.373Z,77.75
2023-03-05T18:13:50.378Z,77.93
2023-03-05T18:16:17.939Z,78.03
2023-03-05T18:23:00.324Z,78.13
2023-03-05T18:25:59.530Z,78.27
2023-03-05T18:28:26.624Z,78.33
2023-03-05T18:30:53.720Z,78.47
2023-03-05T18:33:23.783Z,78.60
2023-03-05T18:35:51.783Z,78.44
2023-03-05T18:38:23.733Z,78.68
2023-03-05T18:40:51.682Z,78.83
2023-03-05T18:43:20.745Z,78.73
2023-03-05T18:45:49.478Z,78.78
2023-03-05T18:48:16.605Z,78.87
2023-03-05T18:50:44.315Z,79.09
2023-03-05T18:53:12.822Z,79.36
2023-03-05T18:55:42.295Z,79.51
2023-03-05T18:58:09.901Z,79.38
2023-03-05T19:00:36.574Z,79.67
2023-03-05T19:03:05.139Z,79.81
2023-03-05T19:05:32.188Z,79.86
2023-03-05T19:07:59.098Z,80.11
2023-03-05T19:10:26.080Z,80.00
2023-03-05T19:13:07.590Z,80.01
2023-03-05T19:15:34.365Z,80.07
2023-03-05T19:18:01.137Z,80.00
2023-03-05T19:20:28.031Z,79.99
2023-03-05T19:22:55.197Z,79.95
2023-03-05T19:25:22.524Z,80.01
2023-03-05T19:27:49.559Z,79.68
2023-03-05T19:30:16.996Z,79.92
2023-03-05T19:32:46.524Z,80.04
2023-03-05T19:35:15.853Z,80.08
2023-03-05T19:37:45.293Z,80.23
2023-03-05T19:40:13.923Z,80.07
2023-03-05T19:42:40.856Z,80.35
2023-03-05T19:45:08.160Z,80.43
2023-03-05T19:47:35.415Z,80.28
2023-03-05T19:50:04.006Z,80.39
2023-03-05T19:52:30.837Z,80.25
2023-03-05T19:54:57.676Z,80.30
2023-03-05T19:57:24.689Z,80.29
2023-03-05T19:59:54.241Z,80.36
2023-03-05T20:02:21.371Z,80.31
2023-03-05T20:04:49.146Z,80.13
2023-03-05T20:07:16.246Z,80.24
2023-03-05T20:09:43.075Z,80.10
2023-03-05T20:12:10.021Z,80.19
2023-03-05T20:14:37.559Z,80.03
2023-03-05T20:17:04.492Z,80.27
2023-03-05T20:19:31.349Z,79.92
2023-03-05T20:21:58.080Z,80.04
2023-03-05T20:24:24.862Z,79.78
2023-03-05T20:26:51.787Z,80.02
2023-03-05T20:29:18.979Z,79.70
2023-03-05T20:31:47.709Z,79.57
2023-03-05T20:34:17.318Z,79.55
2023-03-05T20:36:44.027Z,79.42
2023-03-05T20:39:10.989Z,79.49
2023-03-05T20:41:39.589Z,79.46
2023-03-05T20:44:07.822Z,79.54
2023-03-05T20:46:38.817Z,79.34
2023-03-05T20:49:05.631Z,79.27
2023-03-05T20:51:35.367Z,79.11
2023-03-05T20:54:08.477Z,79.28
2023-03-05T20:56:36.133Z,78.89
2023-03-05T20:59:05.728Z,79.10
2023-03-05T21:01:34.412Z,78.95
2023-03-05T21:04:02.322Z,79.01
2023-03-05T21:06:31.084Z,78.72
2023-03-05T21:08:58.726Z,78.71
2023-03-05T21:11:26.047Z,78.60
2023-03-05T21:13:53.202Z,78.42
2023-03-05T21:16:23.316Z,78.43
2023-03-05T21:18:50.724Z,78.37
2023-03-05T21:21:19.246Z,78.22
2023-03-05T21:23:46.629Z,78.66
2023-03-05T21:26:14.451Z,78.32
2023-03-05T21:28:42.468Z,78.25
2023-03-05T21:31:14.796Z,78.35
2023-03-05T21:33:42.063Z,78.16
2023-03-05T21:36:09.736Z,78.16
2023-03-05T21:38:36.587Z,78.11
2023-03-05T21:41:04.450Z,78.07
2023-03-05T21:43:31.459Z,78.27
2023-03-05T21:46:01.000Z,77.98
2023-03-05T21:48:28.582Z,78.13
2023-03-05T21:50:56.621Z,78.18
2023-03-05T21:53:24.030Z,78.01
2023-03-05T21:56:10.090Z,78.23
2023-03-05T21:58:36.806Z,78.19
2023-03-05T22:01:04.210Z,78.10
2023-03-05T22:03:31.786Z,78.19
2023-03-05T22:05:58.788Z,78.20
2023-03-05T22:08:25.768Z,78.02
2023-03-05T22:10:52.412Z,78.20
2023-03-05T22:13:20.177Z,78.20
2023-03-05T22:15:48.936Z,78.15
2023-03-05T22:18:18.697Z,78.26
2023-03-05T22:20:45.562Z,78.11
2023-03-05T22:23:13.154Z,78.35
2023-03-05T22:25:40.073Z,78.46
2023-03-05T22:28:08.688Z,78.27
2023-03-05T22:30:36.455Z,78.28
2023-03-05T22:33:03.287Z,78.26
2023-03-05T22:35:30.183Z,78.33
2023-03-05T22:37:57.805Z,78.38
2023-03-05T22:40:24.528Z,78.30
2023-03-05T22:42:51.391Z,78.12
2023-03-05T22:45:18.753Z,78.08
2023-03-05T22:47:47.515Z,78.18
2023-03-05T22:50:15.058Z,78.19
2023-03-05T22:52:42.118Z,78.24
2023-03-05T22:55:12.047Z,78.31
2023-03-05T22:57:39.425Z,78.29
2023-03-05T23:00:10.608Z,78.35
2023-03-05T23:02:37.276Z,78.60
2023-03-05T23:05:09.455Z,78.36
2023-03-05T23:07:38.834Z,78.68
2023-03-05T23:13:04.805Z,78.79
2023-03-05T23:15:53.899Z,78.84
2023-03-05T23:18:20.902Z,79.16
2023-03-05T23:20:49.614Z,79.12
2023-03-05T23:23:17.615Z,79.30
2023-03-05T23:25:50.162Z,79.10
2023-03-05T23:28:19.058Z,79.36
2023-03-05T23:30:45.813Z,79.26
2023-03-05T23:33:18.229Z,79.48
2023-03-05T23:35:58.134Z,79.23
2023-03-05T23:38:27.512Z,79.19
2023-03-05T23:40:57.619Z,79.54
2023-03-05T23:43:26.617Z,79.18
2023-03-05T23:45:59.129Z,79.23
2023-03-05T23:48:28.186Z,79.33
2023-03-05T23:50:55.426Z,79.59
2023-03-05T23:53:28.843Z,79.49
2023-03-05T23:55:56.347Z,79.50
2023-03-05T23:58:23.518Z,79.43
